createdAt,value
2019-05-30T00:02:04.705Z,11.33
2019-05-30T00:04:34.283Z,11.32
2019-05-30T00:07:04.676Z,11.29
2019-05-30T00:09:34.222Z,11.25
2019-05-30T00:12:05.106Z,11.23
2019-05-30T00:14:34.955Z,11.19
2019-05-30T00:17:05.164Z,11.18
2019-05-30T00:19:35.016Z,11.14
2019-05-30T00:22:05.564Z,11.10
2019-05-30T00:24:35.436Z,11.11
2019-05-30T00:27:04.987Z,11.09
2019-05-30T00:29:34.435Z,11.07
2019-05-30T00:32:04.605Z,11.04
2019-05-30T00:34:34.436Z,11.01
2019-05-30T00:37:06.060Z,11.00
2019-05-30T00:39:35.759Z,10.98
2019-05-30T00:42:06.180Z,10.98
2019-05-30T00:44:35.771Z,10.98
2019-05-30T00:47:06.411Z,10.97
2019-05-30T00:49:35.972Z,10.94
2019-05-30T00:52:06.913Z,10.95
2019-05-30T00:54:36.315Z,10.95
2019-05-30T00:57:06.980Z,10.95
2019-05-30T00:59:36.533Z,10.94
2019-05-30T01:02:07.007Z,10.95
2019-05-30T01:04:36.605Z,10.94
2019-05-30T01:07:07.210Z,10.94
2019-05-30T01:09:36.844Z,10.93
2019-05-30T01:12:07.450Z,10.93
2019-05-30T01:14:38.086Z,10.93
2019-05-30T01:17:07.602Z,10.93
2019-05-30T01:19:37.377Z,10.93
2019-05-30T01:22:07.627Z,10.92
2019-05-30T01:24:37.210Z,10.92
2019-05-30T01:27:07.634Z,10.94
2019-05-30T01:29:37.199Z,10.95
2019-05-30T01:32:24.488Z,10.94
2019-05-30T01:34:53.974Z,10.95
2019-05-30T01:37:23.404Z,10.95
2019-05-30T01:39:54.237Z,10.95
2019-05-30T01:42:23.721Z,10.97
2019-05-30T01:44:53.168Z,10.96
2019-05-30T01:47:22.655Z,10.96
2019-05-30T01:49:52.158Z,10.96
2019-05-30T01:52:21.966Z,10.98
2019-05-30T01:54:51.433Z,10.98
2019-05-30T01:57:20.920Z,10.99
2019-05-30T01:59:50.360Z,10.99
2019-05-30T02:02:19.796Z,10.98
2019-05-30T02:04:49.277Z,10.99
2019-05-30T02:07:18.738Z,10.97
2019-05-30T02:09:48.210Z,10.96
2019-05-30T02:12:17.700Z,10.94
2019-05-30T02:14:47.170Z,10.92
2019-05-30T02:17:16.788Z,10.91
2019-05-30T02:19:46.275Z,10.90
2019-05-30T02:22:15.762Z,10.89
2019-05-30T02:24:45.249Z,10.88
2019-05-30T02:27:14.722Z,10.89
2019-05-30T02:29:44.201Z,10.88
2019-05-30T02:32:14.089Z,10.89
2019-05-30T02:34:43.562Z,10.89
2019-05-30T02:37:13.380Z,10.88
2019-05-30T02:39:42.874Z,10.89
2019-05-30T02:42:12.380Z,10.88
2019-05-30T02:44:41.924Z,10.88
2019-05-30T02:47:11.706Z,10.88
2019-05-30T02:49:41.174Z,10.89
2019-05-30T02:52:11.418Z,10.90
2019-05-30T02:54:42.318Z,10.91
2019-05-30T02:57:12.679Z,10.90
2019-05-30T02:59:42.291Z,10.93
2019-05-30T03:02:16.392Z,10.92
2019-05-30T03:04:42.935Z,10.95
2019-05-30T03:07:13.117Z,10.95
2019-05-30T03:09:42.756Z,10.98
2019-05-30T03:12:13.491Z,11.01
2019-05-30T03:14:44.277Z,11.04
2019-05-30T03:17:14.637Z,11.07
2019-05-30T03:19:44.396Z,11.09
2019-05-30T03:22:14.118Z,11.11
2019-05-30T03:24:43.710Z,11.13
2019-05-30T03:27:14.202Z,11.16
2019-05-30T03:29:44.016Z,11.18
2019-05-30T03:33:00.859Z,11.20
2019-05-30T03:34:45.429Z,11.24
2019-05-30T03:37:26.569Z,11.27
2019-05-30T03:39:46.295Z,11.30
2019-05-30T03:42:16.205Z,11.35
2019-05-30T03:44:46.962Z,11.39
2019-05-30T03:47:18.445Z,11.42
2019-05-30T03:49:50.136Z,11.44
2019-05-30T03:52:20.533Z,11.46
2019-05-30T03:54:52.211Z,11.48
2019-05-30T03:57:31.110Z,11.53
2019-05-30T04:00:03.642Z,11.60
2019-05-30T04:02:56.350Z,11.66
2019-05-30T04:05:16.311Z,11.72
2019-05-30T04:07:48.792Z,11.78
2019-05-30T04:10:21.321Z,11.84
2019-05-30T04:13:02.726Z,11.88
2019-05-30T04:15:33.746Z,11.93
2019-05-30T04:18:03.162Z,12.02
2019-05-30T04:20:32.708Z,12.07
2019-05-30T04:23:02.184Z,12.17
2019-05-30T04:25:31.626Z,12.27
2019-05-30T04:28:01.105Z,12.35
2019-05-30T04:30:30.921Z,12.41
2019-05-30T04:33:17.157Z,12.48
2019-05-30T04:35:31.573Z,12.54
2019-05-30T04:38:01.056Z,12.63
2019-05-30T04:40:30.697Z,12.71
2019-05-30T04:43:00.178Z,12.79
2019-05-30T04:45:29.649Z,12.86
2019-05-30T04:47:59.123Z,12.96
2019-05-30T04:50:28.607Z,13.03
2019-05-30T04:52:58.095Z,13.13
2019-05-30T04:55:27.597Z,13.19
2019-05-30T04:57:57.342Z,13.28
2019-05-30T05:00:27.025Z,13.35
2019-05-30T05:02:56.857Z,13.39
2019-05-30T05:05:27.114Z,13.47
2019-05-30T05:07:56.746Z,13.54
2019-05-30T05:10:26.195Z,13.59
2019-05-30T05:12:55.685Z,13.64
2019-05-30T05:15:25.187Z,13.72
2019-05-30T05:17:54.666Z,13.80
2019-05-30T05:20:24.112Z,13.88
2019-05-30T05:22:53.591Z,13.98
2019-05-30T05:25:23.615Z,14.06
2019-05-30T05:27:53.191Z,14.18
2019-05-30T05:30:22.771Z,14.28
2019-05-30T05:32:52.249Z,14.37
2019-05-30T05:35:22.911Z,14.48
2019-05-30T05:37:52.458Z,14.59
2019-05-30T05:40:22.400Z,14.69
2019-05-30T05:42:52.085Z,14.82
2019-05-30T05:45:22.836Z,14.97
2019-05-30T05:47:52.459Z,15.13
2019-05-30T05:50:22.532Z,15.25
2019-05-30T05:52:52.078Z,15.36
2019-05-30T05:55:22.829Z,15.43
2019-05-30T05:57:52.537Z,15.52
2019-05-30T06:00:23.316Z,15.65
2019-05-30T06:02:53.253Z,15.80
2019-05-30T06:05:22.695Z,15.95
2019-05-30T06:07:52.631Z,16.11
2019-05-30T06:10:23.655Z,16.28
2019-05-30T06:12:53.485Z,16.50
2019-05-30T06:15:23.050Z,16.67
2019-05-30T06:17:52.487Z,16.79
2019-05-30T06:20:23.298Z,16.88
2019-05-30T06:22:53.469Z,16.97
2019-05-30T06:25:26.660Z,17.06
2019-05-30T06:27:54.318Z,17.14
2019-05-30T06:30:24.448Z,17.33
2019-05-30T06:32:54.279Z,17.45
2019-05-30T06:35:24.978Z,17.65
2019-05-30T06:37:54.899Z,17.76
2019-05-30T06:40:25.485Z,17.85
2019-05-30T06:42:55.048Z,17.91
2019-05-30T06:45:25.604Z,17.96
2019-05-30T06:47:55.734Z,18.03
2019-05-30T06:50:25.165Z,18.06
2019-05-30T06:52:54.632Z,18.15
2019-05-30T06:55:25.153Z,18.23
2019-05-30T06:57:54.829Z,18.35
2019-05-30T07:00:26.443Z,18.45
2019-05-30T07:02:56.191Z,18.55
2019-05-30T07:05:27.875Z,18.63
2019-05-30T07:07:57.103Z,18.72
2019-05-30T07:10:26.881Z,18.88
2019-05-30T07:12:57.608Z,19.01
2019-05-30T07:15:27.332Z,19.12
2019-05-30T07:17:56.899Z,19.24
2019-05-30T07:20:27.494Z,19.31
2019-05-30T07:22:57.489Z,19.40
2019-05-30T07:25:28.256Z,19.38
2019-05-30T07:27:57.722Z,19.42
2019-05-30T07:30:27.903Z,19.40
2019-05-30T07:32:57.660Z,19.30
2019-05-30T07:35:27.954Z,19.16
2019-05-30T07:37:57.532Z,19.20
2019-05-30T07:40:27.006Z,19.27
2019-05-30T07:42:56.849Z,19.27
2019-05-30T07:45:27.375Z,19.31
2019-05-30T07:47:56.814Z,19.36
2019-05-30T07:50:26.426Z,19.35
2019-05-30T07:52:55.859Z,19.39
2019-05-30T07:55:25.342Z,19.46
2019-05-30T07:57:55.118Z,19.54
2019-05-30T08:00:25.047Z,19.66
2019-05-30T08:02:54.554Z,19.77
2019-05-30T08:05:25.101Z,19.86
2019-05-30T08:07:54.630Z,19.98
2019-05-30T08:10:24.349Z,20.03
2019-05-30T08:12:53.796Z,20.00
2019-05-30T08:15:23.774Z,19.99
2019-05-30T08:17:53.609Z,19.95
2019-05-30T08:20:23.216Z,20.06
2019-05-30T08:22:53.027Z,20.14
2019-05-30T08:25:22.479Z,20.18
2019-05-30T08:27:52.334Z,20.32
2019-05-30T08:30:22.916Z,20.52
2019-05-30T08:32:52.413Z,20.56
2019-05-30T08:35:22.039Z,20.59
2019-05-30T08:37:51.567Z,20.69
2019-05-30T08:40:21.125Z,20.82
2019-05-30T08:42:50.584Z,21.06
2019-05-30T08:45:20.346Z,21.33
2019-05-30T08:47:50.078Z,21.59
2019-05-30T08:50:19.837Z,21.88
2019-05-30T08:52:49.275Z,22.08
2019-05-30T08:55:19.970Z,22.30
2019-05-30T08:57:51.559Z,22.50
2019-05-30T09:00:22.789Z,22.57
2019-05-30T09:02:52.231Z,22.54
2019-05-30T09:05:21.914Z,22.40
2019-05-30T09:07:51.429Z,22.33
2019-05-30T09:10:21.413Z,22.20
2019-05-30T09:12:50.865Z,22.09
2019-05-30T09:15:22.199Z,22.00
2019-05-30T09:17:52.914Z,21.95
2019-05-30T09:20:22.731Z,22.00
2019-05-30T09:22:52.295Z,22.16
2019-05-30T09:25:23.536Z,22.24
2019-05-30T09:27:53.396Z,22.24
2019-05-30T09:30:23.983Z,22.24
2019-05-30T09:32:53.544Z,22.20
2019-05-30T09:35:24.593Z,22.12
2019-05-30T09:37:54.157Z,22.02
2019-05-30T09:40:24.047Z,21.97
2019-05-30T09:42:53.678Z,21.96
2019-05-30T09:45:24.956Z,21.96
2019-05-30T09:47:54.465Z,21.88
2019-05-30T09:50:24.044Z,21.75
2019-05-30T09:52:53.482Z,21.66
2019-05-30T09:55:24.107Z,21.57
2019-05-30T09:57:53.631Z,21.59
2019-05-30T10:00:24.937Z,21.69
2019-05-30T10:02:54.420Z,21.82
2019-05-30T10:05:25.000Z,21.75
2019-05-30T10:07:54.734Z,21.56
2019-05-30T10:10:25.542Z,21.58
2019-05-30T10:12:54.983Z,21.74
2019-05-30T10:15:25.221Z,21.87
2019-05-30T10:17:54.830Z,21.87
2019-05-30T10:20:24.874Z,21.94
2019-05-30T10:22:54.383Z,22.00
2019-05-30T10:25:24.113Z,21.90
2019-05-30T10:27:55.018Z,21.92
2019-05-30T10:30:26.735Z,21.89
2019-05-30T10:32:56.172Z,21.71
2019-05-30T10:35:29.656Z,21.54
2019-05-30T10:37:57.269Z,21.49
2019-05-30T10:40:27.503Z,21.41
2019-05-30T10:42:57.027Z,21.34
2019-05-30T10:45:28.524Z,21.22
2019-05-30T10:47:58.396Z,21.17
2019-05-30T10:50:28.418Z,21.15
2019-05-30T10:52:58.005Z,21.07
2019-05-30T10:55:28.037Z,21.10
2019-05-30T10:57:59.552Z,21.10
2019-05-30T11:00:48.999Z,21.09
2019-05-30T11:03:20.665Z,21.11
2019-05-30T11:05:53.483Z,21.17
2019-05-30T11:08:26.316Z,21.19
2019-05-30T11:10:56.821Z,21.13
2019-05-30T11:13:26.335Z,21.22
2019-05-30T11:15:55.835Z,21.16
2019-05-30T11:18:25.281Z,21.06
2019-05-30T11:20:56.182Z,20.97
2019-05-30T11:23:27.330Z,20.96
2019-05-30T11:25:56.834Z,20.99
2019-05-30T11:28:26.664Z,21.06
2019-05-30T11:30:56.844Z,21.07
2019-05-30T11:33:26.439Z,21.07
2019-05-30T11:35:56.887Z,21.01
2019-05-30T11:38:26.832Z,21.07
2019-05-30T11:40:57.546Z,21.28
2019-05-30T11:43:28.256Z,21.32
2019-05-30T11:45:57.942Z,21.40
2019-05-30T11:48:27.421Z,21.39
2019-05-30T11:50:57.939Z,21.42
2019-05-30T11:53:27.549Z,21.49
2019-05-30T11:55:58.299Z,21.53
2019-05-30T11:58:27.898Z,21.53
2019-05-30T12:00:58.397Z,21.53
2019-05-30T12:03:29.570Z,21.55
2019-05-30T12:06:00.852Z,21.52
2019-05-30T12:08:30.384Z,21.40
2019-05-30T12:11:01.271Z,21.37
2019-05-30T12:13:31.038Z,21.39
2019-05-30T12:16:01.833Z,21.50
2019-05-30T12:18:32.502Z,21.54
2019-05-30T12:21:02.119Z,21.52
2019-05-30T12:23:31.525Z,21.43
2019-05-30T12:26:02.296Z,21.36
2019-05-30T12:28:32.195Z,21.35
2019-05-30T12:31:06.286Z,21.35
2019-05-30T12:33:32.945Z,21.30
2019-05-30T12:36:02.780Z,21.29
2019-05-30T12:38:32.423Z,21.21
2019-05-30T12:41:03.007Z,21.16
2019-05-30T12:43:32.567Z,21.08
2019-05-30T12:46:03.183Z,20.98
2019-05-30T12:48:32.850Z,20.89
2019-05-30T12:51:03.509Z,20.80
2019-05-30T12:53:33.149Z,20.78
2019-05-30T12:56:02.763Z,20.71
2019-05-30T12:58:34.055Z,20.65
2019-05-30T13:01:03.575Z,20.66
2019-05-30T13:03:34.153Z,20.64
2019-05-30T13:06:03.583Z,20.62
2019-05-30T13:08:33.434Z,20.57
2019-05-30T13:11:03.832Z,20.53
2019-05-30T13:13:33.435Z,20.54
2019-05-30T13:16:07.173Z,20.60
2019-05-30T13:18:34.485Z,20.78
2019-05-30T13:21:04.279Z,20.91
2019-05-30T13:23:34.120Z,21.06
2019-05-30T13:26:03.906Z,21.32
2019-05-30T13:28:34.827Z,21.60
2019-05-30T13:31:04.564Z,21.85
2019-05-30T13:33:38.162Z,22.09
2019-05-30T13:36:07.119Z,22.27
2019-05-30T13:38:38.073Z,22.48
2019-05-30T13:41:07.836Z,22.53
2019-05-30T13:43:38.737Z,22.53
2019-05-30T13:46:08.816Z,22.46
2019-05-30T13:48:39.202Z,22.50
2019-05-30T13:51:09.192Z,22.53
2019-05-30T13:53:39.613Z,22.47
2019-05-30T13:56:09.862Z,22.24
2019-05-30T13:58:39.769Z,22.08
2019-05-30T14:01:12.366Z,21.95
2019-05-30T14:03:40.859Z,21.93
2019-05-30T14:06:11.305Z,21.89
2019-05-30T14:08:42.133Z,21.85
2019-05-30T14:11:13.267Z,21.76
2019-05-30T14:13:43.127Z,21.73
2019-05-30T14:16:12.566Z,21.69
2019-05-30T14:18:42.052Z,21.63
2019-05-30T14:21:11.650Z,21.65
2019-05-30T14:23:41.247Z,21.61
2019-05-30T14:26:11.612Z,21.56
2019-05-30T14:28:41.407Z,21.53
2019-05-30T14:31:13.106Z,21.58
2019-05-30T14:33:42.618Z,21.70
2019-05-30T14:36:13.343Z,21.75
2019-05-30T14:38:57.005Z,21.72
2019-05-30T14:41:14.875Z,21.72
2019-05-30T14:43:44.430Z,21.78
2019-05-30T14:46:14.408Z,22.00
2019-05-30T14:48:44.186Z,22.20
2019-05-30T14:51:14.038Z,22.26
2019-05-30T14:53:43.538Z,22.34
2019-05-30T14:56:13.608Z,22.27
2019-05-30T14:58:43.229Z,22.22
2019-05-30T15:01:13.420Z,22.22
2019-05-30T15:03:43.136Z,22.23
2019-05-30T15:06:15.957Z,22.34
2019-05-30T15:08:44.308Z,22.34
2019-05-30T15:11:13.909Z,22.31
2019-05-30T15:13:43.422Z,22.39
2019-05-30T15:16:13.839Z,22.34
2019-05-30T15:18:43.365Z,22.34
2019-05-30T15:21:12.800Z,22.29
2019-05-30T15:23:42.635Z,22.22
2019-05-30T15:26:12.236Z,22.18
2019-05-30T15:28:42.800Z,22.14
2019-05-30T15:31:12.509Z,22.19
2019-05-30T15:33:41.961Z,22.21
2019-05-30T15:36:12.546Z,22.21
2019-05-30T15:38:42.190Z,22.20
2019-05-30T15:41:13.150Z,22.16
2019-05-30T15:43:42.764Z,22.05
2019-05-30T15:46:12.331Z,21.99
2019-05-30T15:48:43.215Z,21.95
2019-05-30T15:51:12.775Z,21.91
2019-05-30T15:53:42.242Z,21.88
2019-05-30T15:56:11.826Z,22.00
2019-05-30T15:58:43.316Z,22.16
2019-05-30T16:01:13.972Z,22.13
2019-05-30T16:03:44.132Z,22.14
2019-05-30T16:06:14.476Z,22.14
2019-05-30T16:08:45.634Z,22.03
2019-05-30T16:11:15.208Z,21.95
2019-05-30T16:13:44.658Z,21.88
2019-05-30T16:16:14.167Z,21.83
2019-05-30T16:18:43.642Z,21.76
2019-05-30T16:21:15.569Z,21.66
2019-05-30T16:23:44.643Z,21.57
2019-05-30T16:26:14.143Z,21.52
2019-05-30T16:28:43.610Z,21.48
2019-05-30T16:31:13.753Z,21.39
2019-05-30T16:33:43.713Z,21.29
2019-05-30T16:36:14.086Z,21.24
2019-05-30T16:38:43.638Z,21.19
2019-05-30T16:41:14.134Z,21.14
2019-05-30T16:43:43.950Z,21.09
2019-05-30T16:46:14.346Z,20.99
2019-05-30T16:48:44.342Z,20.96
2019-05-30T16:51:14.719Z,20.95
2019-05-30T16:53:44.245Z,20.92
2019-05-30T16:56:13.740Z,20.85
2019-05-30T16:58:43.180Z,20.82
2019-05-30T17:01:12.675Z,20.81
2019-05-30T17:03:42.121Z,20.79
2019-05-30T17:06:11.619Z,20.77
2019-05-30T17:08:41.503Z,20.72
2019-05-30T17:11:11.491Z,20.71
2019-05-30T17:13:41.002Z,20.67
2019-05-30T17:16:10.486Z,20.68
2019-05-30T17:18:40.320Z,20.65
2019-05-30T17:21:09.816Z,20.60
2019-05-30T17:23:39.283Z,20.58
2019-05-30T17:26:08.926Z,20.54
2019-05-30T17:28:38.748Z,20.47
2019-05-30T17:31:08.390Z,20.50
2019-05-30T17:33:37.869Z,20.52
2019-05-30T17:36:07.369Z,20.48
2019-05-30T17:38:36.868Z,20.45
2019-05-30T17:41:06.383Z,20.45
2019-05-30T17:43:35.860Z,20.45
2019-05-30T17:46:07.704Z,20.45
2019-05-30T17:48:37.280Z,20.44
2019-05-30T17:51:07.140Z,20.43
2019-05-30T17:53:37.817Z,20.39
2019-05-30T17:56:07.495Z,20.39
2019-05-30T17:58:36.981Z,20.35
2019-05-30T18:01:06.795Z,20.27
2019-05-30T18:03:36.365Z,20.21
2019-05-30T18:06:06.169Z,20.12
2019-05-30T18:08:35.730Z,20.09
2019-05-30T18:11:05.249Z,20.06
2019-05-30T18:13:35.076Z,20.06
2019-05-30T18:16:04.586Z,20.02
2019-05-30T18:18:34.156Z,19.99
2019-05-30T18:21:03.675Z,19.96
2019-05-30T18:23:33.191Z,19.92
2019-05-30T18:26:02.635Z,19.91
2019-05-30T18:28:32.489Z,19.89
2019-05-30T18:31:01.952Z,19.86
2019-05-30T18:33:32.528Z,19.87
2019-05-30T18:36:02.113Z,19.90
2019-05-30T18:38:32.652Z,19.84
2019-05-30T18:41:11.352Z,19.82
2019-05-30T18:43:33.511Z,19.80
2019-05-30T18:46:02.910Z,19.77
2019-05-30T18:48:33.436Z,19.75
2019-05-30T18:51:03.003Z,19.74
2019-05-30T18:53:33.574Z,19.71
2019-05-30T18:56:03.022Z,19.70
2019-05-30T18:58:33.274Z,19.66
2019-05-30T19:01:02.750Z,19.63
2019-05-30T19:03:33.368Z,19.59
2019-05-30T19:06:02.873Z,19.56
2019-05-30T19:08:34.165Z,19.51
2019-05-30T19:11:03.768Z,19.50
2019-05-30T19:13:33.723Z,19.49
2019-05-30T19:16:03.465Z,19.44
2019-05-30T19:18:33.654Z,19.41
2019-05-30T19:21:03.083Z,19.37
2019-05-30T19:23:32.674Z,19.35
2019-05-30T19:26:02.197Z,19.33
2019-05-30T19:28:32.533Z,19.31
2019-05-30T19:31:02.292Z,19.28
2019-05-30T19:33:32.908Z,19.26
2019-05-30T19:36:02.484Z,19.25
2019-05-30T19:38:33.252Z,19.22
2019-05-30T19:41:02.925Z,19.20
2019-05-30T19:43:33.788Z,19.20
2019-05-30T19:46:03.564Z,19.19
2019-05-30T19:48:34.305Z,19.17
2019-05-30T19:51:04.281Z,19.15
2019-05-30T19:53:34.973Z,19.15
2019-05-30T19:56:04.703Z,19.15
2019-05-30T19:58:35.545Z,19.15
2019-05-30T20:01:05.156Z,19.14
2019-05-30T20:03:42.702Z,19.11
2019-05-30T20:06:25.018Z,19.11
2019-05-30T20:08:56.157Z,19.10
2019-05-30T20:11:25.852Z,19.07
2019-05-30T20:13:55.372Z,19.04
2019-05-30T20:16:24.864Z,19.04
2019-05-30T20:18:54.672Z,19.03
2019-05-30T20:21:24.220Z,19.01
2019-05-30T20:23:58.321Z,19.00
2019-05-30T20:26:24.876Z,19.00
2019-05-30T20:28:54.398Z,18.98
2019-05-30T20:31:23.914Z,18.98
2019-05-30T20:33:53.495Z,18.95
2019-05-30T20:36:24.046Z,18.94
2019-05-30T20:38:53.493Z,18.94
2019-05-30T20:41:22.980Z,18.92
2019-05-30T20:43:52.804Z,18.91
2019-05-30T20:46:23.677Z,18.88
2019-05-30T20:48:53.505Z,18.87
2019-05-30T20:51:23.280Z,18.87
2019-05-30T20:53:54.765Z,18.86
2019-05-30T20:56:23.919Z,18.85
2019-05-30T20:58:53.372Z,18.79
2019-05-30T21:01:23.232Z,18.69
2019-05-30T21:03:52.740Z,18.56
2019-05-30T21:06:22.705Z,18.49
2019-05-30T21:08:52.318Z,18.42
2019-05-30T21:11:21.804Z,18.36
2019-05-30T21:13:54.051Z,18.29
2019-05-30T21:16:24.167Z,18.22
2019-05-30T21:18:53.609Z,18.14
2019-05-30T21:21:23.091Z,18.10
2019-05-30T21:23:52.528Z,18.04
2019-05-30T21:26:22.399Z,17.98
2019-05-30T21:28:51.838Z,17.92
2019-05-30T21:31:21.366Z,17.90
2019-05-30T21:33:51.132Z,17.87
2019-05-30T21:36:20.810Z,17.87
2019-05-30T21:38:50.306Z,17.87
2019-05-30T21:41:19.736Z,17.87
2019-05-30T21:43:49.569Z,17.89
2019-05-30T21:46:19.007Z,17.90
2019-05-30T21:48:49.078Z,17.91
2019-05-30T21:51:18.626Z,17.91
2019-05-30T21:53:48.182Z,17.93
2019-05-30T21:56:17.619Z,17.94
2019-05-30T21:58:48.220Z,17.95
2019-05-30T22:01:21.073Z,17.90
2019-05-30T22:03:51.691Z,17.83
2019-05-30T22:06:21.200Z,17.81
2019-05-30T22:08:51.756Z,17.79
2019-05-30T22:11:21.475Z,17.78
2019-05-30T22:13:52.042Z,17.75
2019-05-30T22:16:22.090Z,17.74
2019-05-30T22:18:52.236Z,17.71
2019-05-30T22:21:22.921Z,17.69
2019-05-30T22:23:52.631Z,17.62
2019-05-30T22:26:22.233Z,17.56
2019-05-30T22:28:52.682Z,17.52
2019-05-30T22:31:22.395Z,17.49
2019-05-30T22:33:53.145Z,17.44
2019-05-30T22:36:23.905Z,17.40
2019-05-30T22:38:53.416Z,17.36
2019-05-30T22:41:22.900Z,17.30
2019-05-30T22:43:53.015Z,17.25
2019-05-30T22:46:22.552Z,17.22
2019-05-30T22:48:52.916Z,17.20
2019-05-30T22:51:22.492Z,17.17
2019-05-30T22:53:53.070Z,17.15
2019-05-30T22:56:22.841Z,17.14
2019-05-30T22:58:53.677Z,17.11
2019-05-30T23:01:23.621Z,17.09
2019-05-30T23:03:54.018Z,17.08
2019-05-30T23:06:23.993Z,17.06
2019-05-30T23:08:54.737Z,17.04
2019-05-30T23:11:24.391Z,17.03
2019-05-30T23:13:54.219Z,17.02
2019-05-30T23:16:23.712Z,17.00
2019-05-30T23:18:54.757Z,16.99
2019-05-30T23:21:24.351Z,17.00
2019-05-30T23:23:55.351Z,17.00
2019-05-30T23:26:24.872Z,17.04
2019-05-30T23:28:54.359Z,17.07
2019-05-30T23:31:23.831Z,17.10
2019-05-30T23:33:54.500Z,17.13
2019-05-30T23:36:24.073Z,17.17
2019-05-30T23:38:54.784Z,17.22
2019-05-30T23:41:25.473Z,17.25
2019-05-30T23:44:05.431Z,17.28
2019-05-30T23:46:26.187Z,17.30
2019-05-30T23:48:56.093Z,17.32
2019-05-30T23:51:25.949Z,17.34
2019-05-30T23:53:58.369Z,17.36
2019-05-30T23:56:26.647Z,17.36
2019-05-30T23:58:56.834Z,17.35
